createdAt,value
2023-05-10T00:01:18.377Z,61.16
2023-05-10T00:04:21.801Z,60.50
2023-05-10T00:07:24.177Z,60.72
2023-05-10T00:10:27.465Z,61.28
2023-05-10T00:13:29.951Z,60.93
2023-05-10T00:16:33.020Z,60.82
2023-05-10T00:19:35.349Z,61.17
2023-05-10T00:22:38.290Z,61.27
2023-05-10T00:25:40.918Z,61.45
2023-05-10T00:28:43.837Z,60.33
2023-05-10T00:31:46.348Z,60.72
2023-05-10T00:34:49.241Z,61.37
2023-05-10T00:37:51.530Z,61.76
2023-05-10T00:40:54.670Z,61.94
2023-05-10T00:43:57.448Z,61.74
2023-05-10T00:47:00.389Z,60.95
2023-05-10T00:50:03.074Z,61.60
2023-05-10T00:53:06.029Z,62.12
2023-05-10T00:56:08.324Z,62.23
2023-05-10T00:59:11.505Z,62.50
2023-05-10T01:02:14.319Z,62.64
2023-05-10T01:05:17.620Z,62.76
2023-05-10T01:08:20.666Z,62.90
2023-05-10T01:11:23.766Z,62.86
2023-05-10T01:14:26.904Z,62.98
2023-05-10T01:17:30.211Z,63.10
2023-05-10T01:20:37.150Z,63.61
2023-05-10T01:23:40.076Z,62.84
2023-05-10T01:26:45.559Z,63.42
2023-05-10T01:29:50.025Z,63.74
2023-05-10T01:33:00.763Z,63.74
2023-05-10T01:36:07.976Z,63.85
2023-05-10T01:39:20.194Z,64.13
2023-05-10T01:42:26.814Z,64.05
2023-05-10T01:45:34.993Z,64.30
2023-05-10T01:48:41.486Z,64.39
2023-05-10T01:51:47.532Z,64.50
2023-05-10T01:54:54.369Z,64.49
2023-05-10T01:58:05.182Z,64.05
2023-05-10T02:01:09.408Z,64.37
2023-05-10T02:04:15.077Z,64.55
2023-05-10T02:07:18.403Z,64.45
2023-05-10T02:10:21.779Z,64.00
2023-05-10T02:13:25.781Z,64.02
2023-05-10T02:16:29.102Z,63.14
2023-05-10T02:19:33.495Z,63.63
2023-05-10T02:22:36.821Z,63.71
2023-05-10T02:25:40.271Z,63.16
2023-05-10T02:28:43.351Z,63.00
2023-05-10T02:31:46.884Z,62.87
2023-05-10T02:34:52.908Z,62.83
2023-05-10T02:37:57.507Z,62.58
2023-05-10T02:41:00.401Z,62.75
2023-05-10T02:44:03.970Z,62.74
2023-05-10T02:47:06.418Z,63.05
2023-05-10T02:50:09.578Z,62.90
2023-05-10T02:53:14.706Z,62.93
2023-05-10T02:56:24.766Z,62.98
2023-05-10T02:59:27.453Z,62.16
2023-05-10T03:02:31.963Z,61.77
2023-05-10T03:05:35.178Z,61.13
2023-05-10T03:08:38.730Z,61.91
2023-05-10T03:11:48.101Z,61.64
2023-05-10T03:14:59.867Z,61.34
2023-05-10T03:18:06.655Z,61.03
2023-05-10T03:21:13.389Z,60.87
2023-05-10T03:24:17.713Z,61.21
2023-05-10T03:27:22.444Z,60.30
2023-05-10T03:30:25.456Z,61.16
2023-05-10T03:33:28.414Z,61.50
2023-05-10T03:36:30.715Z,61.57
2023-05-10T03:39:34.590Z,61.42
2023-05-10T03:42:37.451Z,61.18
2023-05-10T03:45:40.783Z,61.36
2023-05-10T03:48:43.702Z,60.92
2023-05-10T03:51:46.696Z,61.14
2023-05-10T03:54:49.106Z,61.16
2023-05-10T03:57:52.205Z,59.84
2023-05-10T04:00:54.608Z,60.58
2023-05-10T04:03:57.562Z,60.84
2023-05-10T04:06:59.942Z,60.79
2023-05-10T04:10:02.922Z,60.76
2023-05-10T04:13:05.259Z,60.60
2023-05-10T04:16:08.348Z,60.27
2023-05-10T04:19:10.652Z,59.99
2023-05-10T04:22:13.738Z,60.34
2023-05-10T04:25:16.423Z,60.19
2023-05-10T04:28:19.527Z,60.48
2023-05-10T04:31:22.723Z,59.17
2023-05-10T04:34:26.502Z,60.31
2023-05-10T04:37:28.835Z,60.95
2023-05-10T04:40:31.769Z,61.10
2023-05-10T04:43:34.226Z,61.05
2023-05-10T04:46:37.364Z,61.21
2023-05-10T04:49:39.761Z,61.38
2023-05-10T04:52:42.709Z,61.14
2023-05-10T04:55:44.998Z,60.89
2023-05-10T04:58:47.869Z,61.11
2023-05-10T05:01:50.310Z,60.61
2023-05-10T05:04:53.225Z,60.44
2023-05-10T05:07:55.630Z,60.71
2023-05-10T05:10:58.622Z,60.81
2023-05-10T05:14:01.021Z,58.64
2023-05-10T05:17:04.905Z,60.34
2023-05-10T05:20:07.620Z,59.10
2023-05-10T05:23:10.544Z,59.27
2023-05-10T05:26:13.008Z,58.58
2023-05-10T05:29:16.054Z,59.92
2023-05-10T05:32:18.631Z,59.77
2023-05-10T05:35:21.799Z,58.65
2023-05-10T05:38:24.665Z,59.35
2023-05-10T05:41:27.571Z,59.57
2023-05-10T05:44:29.990Z,60.04
2023-05-10T05:47:35.242Z,58.57
2023-05-10T05:50:37.600Z,59.11
2023-05-10T05:53:40.437Z,58.60
2023-05-10T05:56:42.774Z,59.19
2023-05-10T05:59:45.861Z,59.14
2023-05-10T06:02:49.029Z,57.65
2023-05-10T06:05:52.051Z,58.07
2023-05-10T06:08:54.437Z,57.68
2023-05-10T06:11:57.536Z,57.39
2023-05-10T06:14:59.875Z,57.56
2023-05-10T06:18:03.063Z,57.72
2023-05-10T06:21:05.468Z,55.70
2023-05-10T06:24:08.501Z,56.66
2023-05-10T06:27:10.803Z,56.10
2023-05-10T06:30:15.722Z,57.32
2023-05-10T06:33:18.040Z,55.93
2023-05-10T06:36:21.680Z,56.98
2023-05-10T06:39:24.103Z,57.15
2023-05-10T06:42:28.066Z,57.01
2023-05-10T06:45:30.545Z,55.66
2023-05-10T06:48:33.637Z,55.86
2023-05-10T06:51:35.988Z,54.67
2023-05-10T06:54:41.483Z,55.65
2023-05-10T06:57:44.003Z,55.17
2023-05-10T07:00:48.054Z,53.75
2023-05-10T07:03:50.491Z,54.80
2023-05-10T07:06:54.140Z,54.02
2023-05-10T07:09:57.663Z,52.18
2023-05-10T07:13:01.441Z,51.70
2023-05-10T07:16:04.112Z,51.63
2023-05-10T07:19:07.028Z,51.44
2023-05-10T07:22:09.628Z,51.68
2023-05-10T07:25:12.973Z,50.68
2023-05-10T07:28:16.012Z,49.46
2023-05-10T07:31:18.972Z,48.30
2023-05-10T07:34:21.429Z,49.97
2023-05-10T07:37:24.420Z,50.22
2023-05-10T07:40:26.838Z,50.79
2023-05-10T07:43:29.681Z,49.06
2023-05-10T07:46:32.030Z,47.91
2023-05-10T07:49:35.000Z,48.53
2023-05-10T07:52:37.325Z,46.56
2023-05-10T07:55:40.202Z,47.93
2023-05-10T07:58:42.501Z,44.57
2023-05-10T08:01:45.625Z,45.14
2023-05-10T08:04:48.319Z,46.24
2023-05-10T08:07:51.079Z,46.60
2023-05-10T08:10:53.710Z,45.83
2023-05-10T08:13:56.309Z,44.59
2023-05-10T08:16:59.283Z,45.42
2023-05-10T08:20:02.231Z,45.11
2023-05-10T08:23:07.165Z,44.54
2023-05-10T08:26:09.733Z,41.71
2023-05-10T08:29:12.293Z,40.36
2023-05-10T08:32:15.276Z,41.56
2023-05-10T08:35:18.168Z,42.42
2023-05-10T08:38:20.881Z,42.03
2023-05-10T08:41:25.581Z,40.77
2023-05-10T08:44:28.703Z,41.58
2023-05-10T08:47:31.901Z,41.62
2023-05-10T08:50:38.814Z,42.49
2023-05-10T08:53:41.940Z,42.43
2023-05-10T08:56:44.574Z,43.61
2023-05-10T08:59:47.305Z,42.11
2023-05-10T09:02:50.607Z,40.43
2023-05-10T09:05:53.314Z,40.01
2023-05-10T09:08:56.075Z,38.75
2023-05-10T09:11:58.876Z,38.11
2023-05-10T09:15:01.664Z,34.82
2023-05-10T09:18:05.087Z,35.84
2023-05-10T09:21:07.857Z,33.74
2023-05-10T09:24:10.557Z,34.10
2023-05-10T09:27:13.178Z,32.48
2023-05-10T09:30:25.893Z,31.45
2023-05-10T09:33:28.856Z,33.56
2023-05-10T09:36:31.465Z,33.49
2023-05-10T09:39:34.881Z,32.39
2023-05-10T09:42:37.581Z,32.30
2023-05-10T09:45:42.122Z,34.28
2023-05-10T09:48:47.869Z,34.69
2023-05-10T09:52:09.020Z,36.05
2023-05-10T09:55:11.719Z,35.82
2023-05-10T09:58:15.062Z,34.94
2023-05-10T10:01:17.855Z,33.37
2023-05-10T10:04:21.483Z,32.21
2023-05-10T10:07:25.459Z,33.30
2023-05-10T10:10:29.041Z,34.49
2023-05-10T10:13:33.080Z,33.81
2023-05-10T10:16:36.130Z,34.49
2023-05-10T10:19:38.668Z,35.16
2023-05-10T10:22:41.698Z,34.21
2023-05-10T10:25:45.467Z,32.82
2023-05-10T10:29:08.183Z,31.71
2023-05-10T10:32:18.614Z,32.30
2023-05-10T10:35:22.407Z,31.79
2023-05-10T10:38:25.562Z,31.23
2023-05-10T10:41:44.008Z,31.53
2023-05-10T10:44:46.984Z,29.80
2023-05-10T10:47:50.991Z,31.32
2023-05-10T10:50:57.533Z,31.20
2023-05-10T10:54:09.597Z,29.28
2023-05-10T10:57:15.837Z,28.39
2023-05-10T11:00:24.749Z,30.54
2023-05-10T11:03:29.976Z,29.42
2023-05-10T11:06:34.572Z,30.00
2023-05-10T11:09:41.044Z,30.10
2023-05-10T11:13:04.191Z,30.13
2023-05-10T11:16:15.739Z,29.60
2023-05-10T11:19:19.031Z,32.40
2023-05-10T11:22:21.294Z,30.16
2023-05-10T11:25:27.743Z,31.43
2023-05-10T11:28:30.402Z,33.00
2023-05-10T11:31:33.912Z,34.53
2023-05-10T11:34:36.258Z,34.94
2023-05-10T11:37:44.695Z,36.23
2023-05-10T11:40:47.124Z,35.12
2023-05-10T11:43:51.026Z,36.00
2023-05-10T11:46:53.425Z,35.35
2023-05-10T11:49:56.525Z,33.61
2023-05-10T11:52:59.773Z,33.89
2023-05-10T11:56:05.922Z,34.85
2023-05-10T11:59:09.125Z,35.41
2023-05-10T12:02:12.513Z,36.57
2023-05-10T12:05:15.366Z,36.02
2023-05-10T12:08:21.879Z,34.52
2023-05-10T12:11:28.657Z,35.06
2023-05-10T12:14:34.891Z,36.00
2023-05-10T12:17:38.511Z,34.56
2023-05-10T12:20:41.422Z,34.47
2023-05-10T12:23:46.186Z,34.40
2023-05-10T12:26:55.537Z,35.70
2023-05-10T12:30:00.708Z,36.08
2023-05-10T12:33:13.279Z,36.25
2023-05-10T12:36:16.851Z,34.32
2023-05-10T12:39:19.511Z,34.88
2023-05-10T12:42:22.117Z,36.45
2023-05-10T12:45:24.925Z,36.22
2023-05-10T12:48:29.706Z,35.58
2023-05-10T12:51:32.458Z,35.29
2023-05-10T12:54:35.048Z,35.96
2023-05-10T12:57:37.676Z,35.18
2023-05-10T13:00:40.715Z,35.48
2023-05-10T13:03:44.288Z,36.59
2023-05-10T13:06:46.911Z,35.78
2023-05-10T13:09:49.483Z,35.74
2023-05-10T13:12:52.119Z,35.57
2023-05-10T13:15:54.848Z,32.88
2023-05-10T13:18:57.486Z,33.85
2023-05-10T13:22:00.246Z,33.51
2023-05-10T13:25:02.895Z,32.22
2023-05-10T13:28:05.676Z,33.23
2023-05-10T13:31:08.474Z,31.95
2023-05-10T13:34:11.086Z,33.04
2023-05-10T13:37:13.906Z,32.88
2023-05-10T13:40:16.845Z,33.32
2023-05-10T13:43:20.153Z,33.75
2023-05-10T13:46:23.075Z,32.94
2023-05-10T13:49:25.754Z,34.82
2023-05-10T13:52:28.384Z,35.02
2023-05-10T13:55:31.637Z,33.24
2023-05-10T13:58:34.224Z,32.27
2023-05-10T14:01:37.507Z,31.75
2023-05-10T14:04:40.549Z,32.48
2023-05-10T14:07:42.959Z,32.84
2023-05-10T14:10:45.950Z,32.08
2023-05-10T14:13:48.234Z,32.75
2023-05-10T14:16:51.266Z,33.21
2023-05-10T14:19:54.200Z,32.14
2023-05-10T14:22:57.062Z,33.01
2023-05-10T14:25:59.478Z,34.08
2023-05-10T14:29:02.406Z,32.13
2023-05-10T14:32:04.796Z,33.18
2023-05-10T14:35:09.000Z,32.81
2023-05-10T14:38:13.548Z,31.69
2023-05-10T14:41:18.486Z,32.33
2023-05-10T14:44:21.058Z,32.70
2023-05-10T14:47:24.108Z,32.32
2023-05-10T14:50:36.645Z,32.77
2023-05-10T14:53:40.216Z,33.40
2023-05-10T14:56:42.872Z,34.02
2023-05-10T14:59:45.977Z,33.23
2023-05-10T15:02:49.414Z,34.61
2023-05-10T15:05:54.071Z,34.21
2023-05-10T15:08:56.424Z,33.97
2023-05-10T15:11:59.305Z,34.99
2023-05-10T15:15:01.647Z,35.32
2023-05-10T15:18:05.600Z,34.10
2023-05-10T15:21:07.918Z,34.22
2023-05-10T15:24:10.795Z,34.23
2023-05-10T15:27:13.342Z,34.14
2023-05-10T15:30:16.208Z,34.15
2023-05-10T15:33:18.785Z,33.71
2023-05-10T15:36:21.869Z,35.02
2023-05-10T15:39:24.152Z,34.92
2023-05-10T15:42:26.998Z,34.39
2023-05-10T15:45:29.419Z,34.86
2023-05-10T15:48:32.562Z,34.54
2023-05-10T15:51:36.651Z,34.26
2023-05-10T15:54:39.981Z,34.91
2023-05-10T15:57:42.852Z,34.83
2023-05-10T16:00:45.930Z,35.54
2023-05-10T16:03:48.055Z,35.48
2023-05-10T16:06:51.172Z,36.25
2023-05-10T16:09:53.485Z,35.93
2023-05-10T16:12:56.689Z,35.47
2023-05-10T16:15:59.080Z,36.38
2023-05-10T16:19:03.843Z,35.35
2023-05-10T16:22:07.008Z,35.33
2023-05-10T16:25:14.100Z,34.99
2023-05-10T16:28:16.585Z,34.83
2023-05-10T16:31:20.151Z,35.97
2023-05-10T16:34:24.420Z,35.92
2023-05-10T16:37:28.323Z,36.01
2023-05-10T16:40:31.030Z,35.64
2023-05-10T16:43:33.935Z,35.83
2023-05-10T16:46:36.660Z,36.87
2023-05-10T16:49:39.534Z,37.38
2023-05-10T16:52:41.928Z,38.32
2023-05-10T16:55:44.932Z,38.21
2023-05-10T16:58:49.881Z,37.72
2023-05-10T17:01:53.514Z,39.01
2023-05-10T17:04:56.253Z,38.75
2023-05-10T17:07:59.432Z,39.23
2023-05-10T17:11:02.947Z,40.17
2023-05-10T17:14:06.083Z,39.55
2023-05-10T17:17:12.096Z,39.89
2023-05-10T17:20:17.448Z,39.89
2023-05-10T17:23:19.829Z,40.73
2023-05-10T17:26:22.895Z,41.16
2023-05-10T17:29:25.453Z,40.74
2023-05-10T17:32:28.433Z,41.27
2023-05-10T17:35:31.524Z,41.46
2023-05-10T17:38:34.493Z,41.99
2023-05-10T17:41:36.876Z,42.13
2023-05-10T17:44:39.728Z,42.61
2023-05-10T17:47:42.311Z,41.55
2023-05-10T17:50:45.291Z,41.82
2023-05-10T17:53:47.772Z,42.28
2023-05-10T17:56:50.790Z,41.94
2023-05-10T17:59:53.326Z,41.59
2023-05-10T18:02:56.309Z,42.58
2023-05-10T18:05:59.222Z,42.84
2023-05-10T18:09:01.861Z,43.12
2023-05-10T18:12:04.607Z,42.42
2023-05-10T18:15:07.534Z,42.03
2023-05-10T18:18:11.091Z,43.01
2023-05-10T18:21:13.869Z,43.41
2023-05-10T18:24:17.011Z,41.82
2023-05-10T18:27:26.010Z,42.95
2023-05-10T18:30:28.651Z,43.81
2023-05-10T18:33:31.657Z,42.88
2023-05-10T18:36:34.518Z,42.91
2023-05-10T18:39:37.631Z,43.23
2023-05-10T18:42:41.652Z,42.82
2023-05-10T18:45:44.310Z,42.80
2023-05-10T18:48:47.151Z,42.84
2023-05-10T18:51:49.759Z,43.06
2023-05-10T18:54:52.756Z,43.46
2023-05-10T18:57:55.404Z,43.09
2023-05-10T19:00:58.833Z,43.23
2023-05-10T19:04:01.475Z,41.63
2023-05-10T19:07:04.152Z,42.87
2023-05-10T19:10:06.971Z,43.58
2023-05-10T19:13:09.756Z,43.00
2023-05-10T19:16:14.304Z,41.43
2023-05-10T19:19:17.206Z,42.76
2023-05-10T19:22:28.249Z,42.32
2023-05-10T19:25:39.425Z,42.19
2023-05-10T19:28:42.161Z,42.29
2023-05-10T19:31:46.204Z,42.44
2023-05-10T19:34:48.981Z,43.58
2023-05-10T19:37:52.172Z,42.49
2023-05-10T19:40:58.390Z,42.89
2023-05-10T19:44:01.190Z,53.75
2023-05-10T19:47:05.301Z,66.56
2023-05-10T19:50:08.171Z,61.65
2023-05-10T19:53:11.040Z,76.50
2023-05-10T19:56:14.333Z,74.50
2023-05-10T19:59:16.911Z,68.94
2023-05-10T20:02:19.779Z,75.71
2023-05-10T20:05:22.981Z,65.43
2023-05-10T20:08:25.432Z,76.94
2023-05-10T20:11:28.404Z,60.14
2023-05-10T20:14:30.794Z,62.62
2023-05-10T20:17:33.878Z,66.90
2023-05-10T20:20:36.254Z,64.27
2023-05-10T20:23:39.375Z,64.12
2023-05-10T20:26:41.860Z,61.19
2023-05-10T20:29:44.916Z,62.56
2023-05-10T20:32:47.535Z,59.09
2023-05-10T20:35:51.352Z,60.10
2023-05-10T20:38:53.698Z,54.75
2023-05-10T20:41:56.613Z,58.94
2023-05-10T20:44:59.294Z,59.87
2023-05-10T20:48:02.204Z,58.51
2023-05-10T20:51:04.532Z,61.00
2023-05-10T20:54:07.384Z,51.73
2023-05-10T20:57:12.649Z,50.95
2023-05-10T21:00:15.869Z,54.45
2023-05-10T21:03:18.606Z,54.86
2023-05-10T21:06:21.455Z,55.90
2023-05-10T21:09:23.879Z,54.00
2023-05-10T21:12:26.817Z,54.25
2023-05-10T21:15:29.289Z,50.98
2023-05-10T21:18:32.208Z,50.74
2023-05-10T21:21:34.955Z,50.92
2023-05-10T21:24:37.920Z,52.95
2023-05-10T21:27:40.286Z,47.43
2023-05-10T21:30:43.192Z,50.75
2023-05-10T21:33:45.862Z,48.32
2023-05-10T21:36:48.898Z,46.86
2023-05-10T21:39:52.828Z,47.26
2023-05-10T21:42:55.772Z,51.33
2023-05-10T21:45:58.580Z,47.11
2023-05-10T21:49:01.541Z,50.15
2023-05-10T21:52:03.956Z,46.86
2023-05-10T21:55:08.535Z,45.92
2023-05-10T21:58:11.095Z,48.48
2023-05-10T22:01:15.119Z,45.94
2023-05-10T22:04:17.833Z,47.04
2023-05-10T22:07:20.439Z,47.71
2023-05-10T22:10:23.106Z,47.69
2023-05-10T22:13:25.779Z,46.67
2023-05-10T22:16:29.262Z,46.43
2023-05-10T22:19:31.924Z,45.89
2023-05-10T22:22:34.651Z,46.19
2023-05-10T22:25:37.318Z,49.97
2023-05-10T22:28:39.980Z,50.06
2023-05-10T22:31:42.848Z,49.61
2023-05-10T22:34:45.460Z,52.40
2023-05-10T22:37:48.063Z,53.91
2023-05-10T22:40:50.698Z,53.50
2023-05-10T22:43:53.383Z,53.69
2023-05-10T22:46:56.087Z,53.78
2023-05-10T22:49:58.775Z,53.50
2023-05-10T22:53:01.451Z,54.24
2023-05-10T22:56:04.169Z,51.43
2023-05-10T22:59:06.854Z,52.20
2023-05-10T23:02:09.947Z,52.94
2023-05-10T23:05:13.176Z,51.45
2023-05-10T23:08:15.810Z,52.26
2023-05-10T23:11:18.416Z,52.94
2023-05-10T23:14:21.021Z,51.94
2023-05-10T23:17:23.634Z,52.22
2023-05-10T23:20:26.438Z,51.70
2023-05-10T23:23:29.193Z,50.72
2023-05-10T23:26:31.738Z,51.78
2023-05-10T23:29:34.805Z,52.16
2023-05-10T23:32:37.457Z,52.22
2023-05-10T23:35:40.081Z,52.11
2023-05-10T23:38:42.747Z,52.52
2023-05-10T23:41:45.395Z,52.45
2023-05-10T23:44:48.012Z,50.41
2023-05-10T23:47:50.677Z,52.05
2023-05-10T23:50:53.341Z,51.67
2023-05-10T23:53:56.017Z,52.90
2023-05-10T23:56:58.603Z,49.12
